sensor_id;sensor_type;location;lat;lon;timestamp;pressure;altitude;pressure_sealevel;temperature;humidity
63351;BME280;64988;51.058;17.040;2023-02-28T00:00:15;101583.28;;;0.46;63.86
63351;BME280;64988;51.058;17.040;2023-02-28T00:05:43;101574.50;;;0.42;63.42
63351;BME280;64988;51.058;17.040;2023-02-28T00:11:13;101578.03;;;0.43;64.06
63351;BME280;64988;51.058;17.040;2023-02-28T00:16:41;101585.06;;;0.45;64.16
63351;BME280;64988;51.058;17.040;2023-02-28T00:22:10;101578.03;;;0.44;63.50
63351;BME280;64988;51.058;17.040;2023-02-28T00:27:37;101571.78;;;0.47;63.29
63351;BME280;64988;51.058;17.040;2023-02-28T00:33:06;101569.13;;;0.45;63.04
63351;BME280;64988;51.058;17.040;2023-02-28T00:38:33;101565.56;;;0.48;63.31
63351;BME280;64988;51.058;17.040;2023-02-28T00:44:01;101565.63;;;0.45;62.87
63351;BME280;64988;51.058;17.040;2023-02-28T00:49:31;101568.34;;;0.42;63.39
63351;BME280;64988;51.058;17.040;2023-02-28T00:54:59;101567.41;;;0.43;63.13
63351;BME280;64988;51.058;17.040;2023-02-28T01:00:26;101569.25;;;0.39;62.20
63351;BME280;64988;51.058;17.040;2023-02-28T01:05:53;101570.28;;;0.32;62.08
63351;BME280;64988;51.058;17.040;2023-02-28T01:11:20;101570.31;;;0.29;62.25
63351;BME280;64988;51.058;17.040;2023-02-28T01:16:48;101559.78;;;0.25;61.97
63351;BME280;64988;51.058;17.040;2023-02-28T01:22:15;101565.34;;;0.07;64.12
63351;BME280;64988;51.058;17.040;2023-02-28T01:27:43;101565.41;;;0.04;64.38
63351;BME280;64988;51.058;17.040;2023-02-28T01:33:10;101563.00;;;-0.10;64.89
63351;BME280;64988;51.058;17.040;2023-02-28T01:38:37;101562.25;;;-0.21;65.40
63351;BME280;64988;51.058;17.040;2023-02-28T01:50:18;101560.72;;;-0.36;67.36
63351;BME280;64988;51.058;17.040;2023-02-28T01:55:48;101552.78;;;-0.37;67.60
63351;BME280;64988;51.058;17.040;2023-02-28T02:01:21;101553.75;;;-0.43;67.93
63351;BME280;64988;51.058;17.040;2023-02-28T02:06:50;101559.97;;;-0.47;68.34
63351;BME280;64988;51.058;17.040;2023-02-28T02:18:18;101556.31;;;-0.38;67.42
63351;BME280;64988;51.058;17.040;2023-02-28T02:35:31;101553.69;;;-0.40;67.52
63351;BME280;64988;51.058;17.040;2023-02-28T02:46:44;101553.63;;;-0.35;67.73
63351;BME280;64988;51.058;17.040;2023-02-28T02:52:14;101554.50;;;-0.33;66.86
63351;BME280;64988;51.058;17.040;2023-02-28T02:57:50;101550.97;;;-0.34;67.86
63351;BME280;64988;51.058;17.040;2023-02-28T03:03:20;101552.81;;;-0.39;67.22
63351;BME280;64988;51.058;17.040;2023-02-28T03:08:56;101549.31;;;-0.44;67.01
63351;BME280;64988;51.058;17.040;2023-02-28T03:26:19;101561.84;;;-0.52;68.09
63351;BME280;64988;51.058;17.040;2023-02-28T03:31:51;101560.06;;;-0.53;67.81
63351;BME280;64988;51.058;17.040;2023-02-28T03:37:23;101567.97;;;-0.52;69.04
63351;BME280;64988;51.058;17.040;2023-02-28T03:42:57;101574.97;;;-0.44;67.01
63351;BME280;64988;51.058;17.040;2023-02-28T03:48:35;101566.09;;;-0.42;68.12
63351;BME280;64988;51.058;17.040;2023-02-28T03:54:11;101577.53;;;-0.38;66.99
63351;BME280;64988;51.058;17.040;2023-02-28T04:00:24;101578.38;;;-0.35;67.36
63351;BME280;64988;51.058;17.040;2023-02-28T04:05:54;101567.72;;;-0.32;67.03
63351;BME280;64988;51.058;17.040;2023-02-28T04:11:37;101573.94;;;-0.33;67.71
63351;BME280;64988;51.058;17.040;2023-02-28T04:17:05;101583.75;;;-0.39;67.57
63351;BME280;64988;51.058;17.040;2023-02-28T04:22:33;101583.75;;;-0.39;67.72
63351;BME280;64988;51.058;17.040;2023-02-28T04:28:00;101597.03;;;-0.39;66.97
63351;BME280;64988;51.058;17.040;2023-02-28T04:33:28;101584.66;;;-0.42;66.36
63351;BME280;64988;51.058;17.040;2023-02-28T04:38:56;101592.59;;;-0.42;65.94
63351;BME280;64988;51.058;17.040;2023-02-28T04:44:23;101591.81;;;-0.45;65.94
63351;BME280;64988;51.058;17.040;2023-02-28T04:49:50;101594.50;;;-0.50;65.55
63351;BME280;64988;51.058;17.040;2023-02-28T04:55:17;101598.13;;;-0.56;67.74
63351;BME280;64988;51.058;17.040;2023-02-28T05:00:44;101596.34;;;-0.57;68.28
63351;BME280;64988;51.058;17.040;2023-02-28T05:06:13;101603.47;;;-0.60;68.52
63351;BME280;64988;51.058;17.040;2023-02-28T05:11:42;101606.16;;;-0.62;70.54
63351;BME280;64988;51.058;17.040;2023-02-28T05:17:09;101605.19;;;-0.56;69.28
63351;BME280;64988;51.058;17.040;2023-02-28T05:22:38;101602.50;;;-0.53;67.59
63351;BME280;64988;51.058;17.040;2023-02-28T05:28:06;101606.03;;;-0.52;68.18
63351;BME280;64988;51.058;17.040;2023-02-28T05:33:33;101602.44;;;-0.48;68.37
63351;BME280;64988;51.058;17.040;2023-02-28T05:39:00;101622.75;;;-0.46;66.62
63351;BME280;64988;51.058;17.040;2023-02-28T05:44:28;101613.81;;;-0.42;64.51
63351;BME280;64988;51.058;17.040;2023-02-28T05:49:55;101624.38;;;-0.37;67.52
63351;BME280;64988;51.058;17.040;2023-02-28T05:55:22;101630.56;;;-0.37;68.45
63351;BME280;64988;51.058;17.040;2023-02-28T06:00:50;101635.84;;;-0.35;68.78
63351;BME280;64988;51.058;17.040;2023-02-28T06:06:18;101639.25;;;-0.26;67.96
63351;BME280;64988;51.058;17.040;2023-02-28T06:11:44;101644.41;;;-0.14;68.71
63351;BME280;64988;51.058;17.040;2023-02-28T06:17:12;101651.25;;;0.03;67.92
63351;BME280;64988;51.058;17.040;2023-02-28T06:22:39;101646.50;;;0.26;66.57
63351;BME280;64988;51.058;17.040;2023-02-28T06:28:06;101654.09;;;0.48;63.99
63351;BME280;64988;51.058;17.040;2023-02-28T06:33:34;101666.91;;;0.76;63.36
63351;BME280;64988;51.058;17.040;2023-02-28T06:39:02;101664.25;;;1.25;61.86
63351;BME280;64988;51.058;17.040;2023-02-28T06:44:30;101657.81;;;3.57;55.52
63351;BME280;64988;51.058;17.040;2023-02-28T06:50:10;101653.72;;;5.87;46.52
63351;BME280;64988;51.058;17.040;2023-02-28T06:55:40;101652.19;;;7.72;42.43
63351;BME280;64988;51.058;17.040;2023-02-28T07:01:13;101659.53;;;9.15;35.33
63351;BME280;64988;51.058;17.040;2023-02-28T07:06:44;101656.00;;;10.77;34.64
63351;BME280;64988;51.058;17.040;2023-02-28T07:12:14;101660.56;;;11.66;30.38
63351;BME280;64988;51.058;17.040;2023-02-28T07:17:45;101659.97;;;12.45;30.09
63351;BME280;64988;51.058;17.040;2023-02-28T07:23:18;101673.16;;;13.05;27.13
63351;BME280;64988;51.058;17.040;2023-02-28T07:28:50;101671.91;;;14.00;26.76
63351;BME280;64988;51.058;17.040;2023-02-28T07:34:23;101664.69;;;15.10;24.81
63351;BME280;64988;51.058;17.040;2023-02-28T07:39:57;101667.72;;;15.99;24.00
63351;BME280;64988;51.058;17.040;2023-02-28T07:45:28;101666.72;;;16.44;21.67
63351;BME280;64988;51.058;17.040;2023-02-28T07:50:56;101677.25;;;16.49;21.10
63351;BME280;64988;51.058;17.040;2023-02-28T07:56:24;101681.56;;;16.51;20.64
63351;BME280;64988;51.058;17.040;2023-02-28T08:01:52;101680.59;;;16.41;19.89
63351;BME280;64988;51.058;17.040;2023-02-28T08:07:20;101677.38;;;16.69;20.59
63351;BME280;64988;51.058;17.040;2023-02-28T08:12:48;101682.94;;;16.79;19.55
63351;BME280;64988;51.058;17.040;2023-02-28T08:18:17;101678.25;;;16.70;18.82
63351;BME280;64988;51.058;17.040;2023-02-28T08:23:49;101674.16;;;16.64;18.80
63351;BME280;64988;51.058;17.040;2023-02-28T08:29:17;101668.63;;;16.98;18.71
63351;BME280;64988;51.058;17.040;2023-02-28T08:34:45;101677.44;;;16.90;19.11
63351;BME280;64988;51.058;17.040;2023-02-28T08:40:14;101677.97;;;16.84;19.09
63351;BME280;64988;51.058;17.040;2023-02-28T08:45:45;101676.22;;;17.26;19.02
63351;BME280;64988;51.058;17.040;2023-02-28T08:51:15;101672.50;;;17.59;19.23
63351;BME280;64988;51.058;17.040;2023-02-28T08:56:49;101682.00;;;17.12;18.83
63351;BME280;64988;51.058;17.040;2023-02-28T09:02:17;101680.84;;;16.27;20.19
63351;BME280;64988;51.058;17.040;2023-02-28T09:07:44;101666.94;;;15.86;20.98
63351;BME280;64988;51.058;17.040;2023-02-28T09:13:12;101672.50;;;15.14;21.23
63351;BME280;64988;51.058;17.040;2023-02-28T09:18:39;101669.09;;;15.00;22.09
63351;BME280;64988;51.058;17.040;2023-02-28T09:24:08;101666.81;;;14.21;23.07
63351;BME280;64988;51.058;17.040;2023-02-28T09:29:35;101665.03;;;13.44;23.22
63351;BME280;64988;51.058;17.040;2023-02-28T09:35:02;101663.56;;;12.46;24.50
63351;BME280;64988;51.058;17.040;2023-02-28T09:40:30;101657.69;;;11.09;26.48
63351;BME280;64988;51.058;17.040;2023-02-28T09:57:37;101638.50;;;11.43;26.27
63351;BME280;64988;51.058;17.040;2023-02-28T10:08:58;101658.28;;;9.56;30.10
63351;BME280;64988;51.058;17.040;2023-02-28T10:14:31;101661.47;;;9.13;29.86
63351;BME280;64988;51.058;17.040;2023-02-28T10:20:05;101664.53;;;9.22;30.39
63351;BME280;64988;51.058;17.040;2023-02-28T10:25:37;101667.47;;;8.65;30.30
63351;BME280;64988;51.058;17.040;2023-02-28T10:31:04;101665.78;;;8.81;31.71
63351;BME280;64988;51.058;17.040;2023-02-28T10:36:32;101655.34;;;8.37;31.89
63351;BME280;64988;51.058;17.040;2023-02-28T10:42:01;101661.75;;;7.77;32.44
63351;BME280;64988;51.058;17.040;2023-02-28T10:47:34;101651.72;;;7.62;33.34
63351;BME280;64988;51.058;17.040;2023-02-28T10:53:31;101644.13;;;7.52;34.68
63351;BME280;64988;51.058;17.040;2023-02-28T11:04:34;101637.97;;;7.29;33.79
63351;BME280;64988;51.058;17.040;2023-02-28T11:10:04;101634.94;;;6.97;34.40
63351;BME280;64988;51.058;17.040;2023-02-28T11:15:35;101644.00;;;6.51;34.90
63351;BME280;64988;51.058;17.040;2023-02-28T11:21:03;101639.44;;;6.09;37.13
63351;BME280;64988;51.058;17.040;2023-02-28T11:26:45;101630.69;;;5.81;36.17
63351;BME280;64988;51.058;17.040;2023-02-28T11:32:28;101632.28;;;5.85;36.90
63351;BME280;64988;51.058;17.040;2023-02-28T11:37:57;101623.03;;;5.70;38.13
63351;BME280;64988;51.058;17.040;2023-02-28T11:49:37;101619.25;;;6.01;38.06
63351;BME280;64988;51.058;17.040;2023-02-28T12:01:05;101607.34;;;6.51;38.26
63351;BME280;64988;51.058;17.040;2023-02-28T12:07:09;101603.59;;;6.12;38.00
63351;BME280;64988;51.058;17.040;2023-02-28T12:35:55;101583.75;;;5.48;39.60
63351;BME280;64988;51.058;17.040;2023-02-28T12:47:31;101556.72;;;6.00;40.62
63351;BME280;64988;51.058;17.040;2023-02-28T12:53:06;101550.66;;;5.95;40.65
63351;BME280;64988;51.058;17.040;2023-02-28T12:58:40;101550.66;;;5.72;40.25
63351;BME280;64988;51.058;17.040;2023-02-28T13:09:59;101555.41;;;5.42;40.49
63351;BME280;64988;51.058;17.040;2023-02-28T13:15:28;101552.75;;;5.41;40.78
63351;BME280;64988;51.058;17.040;2023-02-28T13:20:56;101547.88;;;5.75;40.28
63351;BME280;64988;51.058;17.040;2023-02-28T13:37:42;101548.31;;;5.88;40.99
63351;BME280;64988;51.058;17.040;2023-02-28T13:43:10;101544.50;;;5.93;40.23
63351;BME280;64988;51.058;17.040;2023-02-28T13:48:38;101548.81;;;5.51;42.08
63351;BME280;64988;51.058;17.040;2023-02-28T14:11:43;101519.31;;;5.04;43.18
63351;BME280;64988;51.058;17.040;2023-02-28T14:17:15;101517.00;;;4.95;43.94
63351;BME280;64988;51.058;17.040;2023-02-28T14:35:15;101515.25;;;4.69;44.87
63351;BME280;64988;51.058;17.040;2023-02-28T14:40:21;101513.03;;;4.56;45.60
63351;BME280;64988;51.058;17.040;2023-02-28T14:45:51;101513.75;;;4.36;44.52
63351;BME280;64988;51.058;17.040;2023-02-28T14:51:22;101506.69;;;4.34;44.55
63351;BME280;64988;51.058;17.040;2023-02-28T14:56:50;101510.31;;;4.33;44.85
63351;BME280;64988;51.058;17.040;2023-02-28T15:02:21;101500.31;;;4.11;45.53
63351;BME280;64988;51.058;17.040;2023-02-28T15:08:13;101509.25;;;4.10;45.66
63351;BME280;64988;51.058;17.040;2023-02-28T15:13:54;101512.34;;;3.98;45.68
63351;BME280;64988;51.058;17.040;2023-02-28T15:19:31;101515.50;;;3.83;46.28
63351;BME280;64988;51.058;17.040;2023-02-28T15:24:59;101507.72;;;3.76;46.60
63351;BME280;64988;51.058;17.040;2023-02-28T15:30:29;101507.84;;;3.72;46.67
63351;BME280;64988;51.058;17.040;2023-02-28T15:36:25;101502.31;;;3.49;47.59
63351;BME280;64988;51.058;17.040;2023-02-28T15:42:12;101506.22;;;3.39;48.17
63351;BME280;64988;51.058;17.040;2023-02-28T15:47:45;101501.13;;;3.30;48.12
63351;BME280;64988;51.058;17.040;2023-02-28T15:53:16;101501.63;;;3.13;49.25
63351;BME280;64988;51.058;17.040;2023-02-28T15:58:45;101501.34;;;2.93;49.36
63351;BME280;64988;51.058;17.040;2023-02-28T16:04:18;101499.00;;;2.81;50.41
63351;BME280;64988;51.058;17.040;2023-02-28T16:09:46;101498.78;;;2.58;51.36
63351;BME280;64988;51.058;17.040;2023-02-28T16:15:19;101495.53;;;2.47;51.70
63351;BME280;64988;51.058;17.040;2023-02-28T16:20:46;101504.91;;;2.28;52.74
63351;BME280;64988;51.058;17.040;2023-02-28T16:26:21;101515.97;;;2.11;54.49
63351;BME280;64988;51.058;17.040;2023-02-28T16:31:49;101514.66;;;1.93;54.95
63351;BME280;64988;51.058;17.040;2023-02-28T16:37:17;101517.75;;;1.75;56.76
63351;BME280;64988;51.058;17.040;2023-02-28T16:42:48;101527.88;;;1.59;58.07
63351;BME280;64988;51.058;17.040;2023-02-28T16:48:18;101521.13;;;1.43;58.42
63351;BME280;64988;51.058;17.040;2023-02-28T16:53:47;101538.38;;;1.26;58.91
63351;BME280;64988;51.058;17.040;2023-02-28T16:59:22;101537.84;;;1.07;60.12
63351;BME280;64988;51.058;17.040;2023-02-28T17:04:59;101535.56;;;0.90;61.32
63351;BME280;64988;51.058;17.040;2023-02-28T17:10:28;101548.34;;;0.69;61.71
63351;BME280;64988;51.058;17.040;2023-02-28T17:15:55;101548.59;;;0.57;61.79
63351;BME280;64988;51.058;17.040;2023-02-28T17:21:24;101554.13;;;0.44;62.16
63351;BME280;64988;51.058;17.040;2023-02-28T17:26:51;101550.75;;;0.33;62.87
63351;BME280;64988;51.058;17.040;2023-02-28T17:32:21;101553.59;;;0.23;63.38
63351;BME280;64988;51.058;17.040;2023-02-28T17:37:49;101549.44;;;0.07;63.59
63351;BME280;64988;51.058;17.040;2023-02-28T17:43:20;101554.94;;;-0.06;64.04
63351;BME280;64988;51.058;17.040;2023-02-28T17:48:52;101548.91;;;-0.14;64.47
63351;BME280;64988;51.058;17.040;2023-02-28T17:54:21;101545.50;;;-0.25;65.12
63351;BME280;64988;51.058;17.040;2023-02-28T17:59:53;101543.00;;;-0.34;65.56
63351;BME280;64988;51.058;17.040;2023-02-28T18:05:21;101551.97;;;-0.44;66.49
63351;BME280;64988;51.058;17.040;2023-02-28T18:10:48;101551.28;;;-0.55;66.54
63351;BME280;64988;51.058;17.040;2023-02-28T18:16:17;101569.03;;;-0.63;67.26
63351;BME280;64988;51.058;17.040;2023-02-28T18:21:48;101569.09;;;-0.68;67.37
63351;BME280;64988;51.058;17.040;2023-02-28T18:27:17;101576.22;;;-0.71;67.04
63351;BME280;64988;51.058;17.040;2023-02-28T18:32:44;101561.41;;;-0.87;67.50
63351;BME280;64988;51.058;17.040;2023-02-28T18:38:14;101566.03;;;-1.04;68.67
63351;BME280;64988;51.058;17.040;2023-02-28T18:43:42;101561.63;;;-1.09;68.79
63351;BME280;64988;51.058;17.040;2023-02-28T18:49:12;101572.31;;;-1.16;68.38
63351;BME280;64988;51.058;17.040;2023-02-28T18:54:39;101574.97;;;-1.15;68.48
63351;BME280;64988;51.058;17.040;2023-02-28T19:00:10;101567.00;;;-1.13;68.49
63351;BME280;64988;51.058;17.040;2023-02-28T19:05:39;101564.38;;;-1.16;68.64
63351;BME280;64988;51.058;17.040;2023-02-28T19:11:13;101560.78;;;-1.12;68.83
63351;BME280;64988;51.058;17.040;2023-02-28T19:16:41;101561.75;;;-1.18;69.36
63351;BME280;64988;51.058;17.040;2023-02-28T19:22:09;101568.06;;;-1.31;69.99
63351;BME280;64988;51.058;17.040;2023-02-28T19:27:37;101575.22;;;-1.40;70.35
63351;BME280;64988;51.058;17.040;2023-02-28T19:33:06;101570.91;;;-1.49;71.13
63351;BME280;64988;51.058;17.040;2023-02-28T19:38:34;101562.13;;;-1.57;71.14
63351;BME280;64988;51.058;17.040;2023-02-28T19:44:02;101567.50;;;-1.62;71.82
63351;BME280;64988;51.058;17.040;2023-02-28T19:49:33;101573.75;;;-1.73;72.67
63351;BME280;64988;51.058;17.040;2023-02-28T19:55:02;101585.28;;;-1.79;73.26
63351;BME280;64988;51.058;17.040;2023-02-28T20:00:31;101584.47;;;-1.88;73.40
63351;BME280;64988;51.058;17.040;2023-02-28T20:06:10;101576.59;;;-1.94;73.41
63351;BME280;64988;51.058;17.040;2023-02-28T20:11:40;101572.19;;;-1.98;74.10
63351;BME280;64988;51.058;17.040;2023-02-28T20:17:07;101574.88;;;-2.04;74.17
63351;BME280;64988;51.058;17.040;2023-02-28T20:22:35;101578.47;;;-2.12;74.62
63351;BME280;64988;51.058;17.040;2023-02-28T20:28:05;101580.25;;;-2.15;75.25
63351;BME280;64988;51.058;17.040;2023-02-28T20:33:32;101581.19;;;-2.21;75.07
63351;BME280;64988;51.058;17.040;2023-02-28T20:38:59;101579.44;;;-2.28;75.39
63351;BME280;64988;51.058;17.040;2023-02-28T20:44:27;101590.03;;;-2.32;75.37
63351;BME280;64988;51.058;17.040;2023-02-28T20:49:55;101580.38;;;-2.33;75.80
63351;BME280;64988;51.058;17.040;2023-02-28T20:55:23;101579.53;;;-2.41;75.68
63351;BME280;64988;51.058;17.040;2023-02-28T21:01:01;101580.44;;;-2.47;76.76
63351;BME280;64988;51.058;17.040;2023-02-28T21:06:31;101582.25;;;-2.58;77.10
63351;BME280;64988;51.058;17.040;2023-02-28T21:12:00;101589.31;;;-2.61;77.59
63351;BME280;64988;51.058;17.040;2023-02-28T21:17:28;101584.91;;;-2.61;77.90
63351;BME280;64988;51.058;17.040;2023-02-28T21:22:56;101584.09;;;-2.69;78.18
63351;BME280;64988;51.058;17.040;2023-02-28T21:28:30;101572.66;;;-2.73;77.88
63351;BME280;64988;51.058;17.040;2023-02-28T21:34:04;101576.22;;;-2.83;77.88
63351;BME280;64988;51.058;17.040;2023-02-28T21:39:36;101569.22;;;-3.00;77.69
63351;BME280;64988;51.058;17.040;2023-02-28T21:45:05;101568.41;;;-3.14;78.30
63351;BME280;64988;51.058;17.040;2023-02-28T21:50:34;101571.94;;;-3.26;78.81
63351;BME280;64988;51.058;17.040;2023-02-28T21:56:02;101578.16;;;-3.39;79.57
63351;BME280;64988;51.058;17.040;2023-02-28T22:01:33;101575.53;;;-3.53;79.75
63351;BME280;64988;51.058;17.040;2023-02-28T22:07:02;101574.66;;;-3.76;80.02
63351;BME280;64988;51.058;17.040;2023-02-28T22:12:30;101576.41;;;-3.90;80.83
63351;BME280;64988;51.058;17.040;2023-02-28T22:17:57;101580.81;;;-4.01;80.94
63351;BME280;64988;51.058;17.040;2023-02-28T22:23:27;101587.81;;;-3.97;82.68
63351;BME280;64988;51.058;17.040;2023-02-28T22:28:55;101588.72;;;-3.86;82.80
63351;BME280;64988;51.058;17.040;2023-02-28T22:34:23;101591.34;;;-3.83;83.02
63351;BME280;64988;51.058;17.040;2023-02-28T22:39:50;101600.13;;;-3.84;82.76
63351;BME280;64988;51.058;17.040;2023-02-28T22:45:17;101610.69;;;-3.89;82.95
63351;BME280;64988;51.058;17.040;2023-02-28T22:50:44;101609.81;;;-3.86;83.09
63351;BME280;64988;51.058;17.040;2023-02-28T22:56:14;101616.88;;;-3.79;82.99
63351;BME280;64988;51.058;17.040;2023-02-28T23:01:41;101623.00;;;-3.83;83.01
63351;BME280;64988;51.058;17.040;2023-02-28T23:07:12;101614.22;;;-3.82;83.13
63351;BME280;64988;51.058;17.040;2023-02-28T23:12:40;101606.31;;;-3.85;83.57
63351;BME280;64988;51.058;17.040;2023-02-28T23:18:16;101608.94;;;-3.87;83.42
63351;BME280;64988;51.058;17.040;2023-02-28T23:23:44;101602.78;;;-3.90;83.49
63351;BME280;64988;51.058;17.040;2023-02-28T23:29:13;101605.41;;;-3.87;84.06
63351;BME280;64988;51.058;17.040;2023-02-28T23:34:40;101599.28;;;-3.86;83.28
63351;BME280;64988;51.058;17.040;2023-02-28T23:40:09;101602.78;;;-3.87;84.40
63351;BME280;64988;51.058;17.040;2023-02-28T23:45:37;101604.53;;;-3.91;83.90
63351;BME280;64988;51.058;17.040;2023-02-28T23:51:10;101615.06;;;-3.91;84.44
63351;BME280;64988;51.058;17.040;2023-02-28T23:56:37;101618.63;;;-3.86;84.02
